sensor_id;sensor_type;location;lat;lon;timestamp;P1;durP1;ratioP1;P2;durP2;ratioP2
12373;SDS011;6251;51.762;8.660;2023-11-22T00:02:57;6.93;;;5.07;;
12373;SDS011;6251;51.762;8.660;2023-11-22T00:12:57;5.90;;;4.70;;
12373;SDS011;6251;51.762;8.660;2023-11-22T02:04:42;7.53;;;4.90;;
12373;SDS011;6251;51.762;8.660;2023-11-22T02:14:43;9.83;;;5.57;;
12373;SDS011;6251;51.762;8.660;2023-11-22T03:46:07;8.97;;;6.13;;
12373;SDS011;6251;51.762;8.660;2023-11-22T03:56:07;8.10;;;5.47;;
12373;SDS011;6251;51.762;8.660;2023-11-22T05:07:10;10.03;;;5.90;;
12373;SDS011;6251;51.762;8.660;2023-11-22T05:17:11;7.93;;;4.93;;
12373;SDS011;6251;51.762;8.660;2023-11-22T05:27:12;9.17;;;5.90;;
12373;SDS011;6251;51.762;8.660;2023-11-22T05:37:12;7.87;;;5.50;;
12373;SDS011;6251;51.762;8.660;2023-11-22T05:47:13;7.60;;;5.83;;
12373;SDS011;6251;51.762;8.660;2023-11-22T05:57:14;8.02;;;5.80;;
12373;SDS011;6251;51.762;8.660;2023-11-22T06:07:15;8.97;;;6.60;;
12373;SDS011;6251;51.762;8.660;2023-11-22T06:17:15;11.47;;;6.27;;
12373;SDS011;6251;51.762;8.660;2023-11-22T06:27:16;8.73;;;5.77;;
12373;SDS011;6251;51.762;8.660;2023-11-22T06:37:16;10.90;;;6.23;;
12373;SDS011;6251;51.762;8.660;2023-11-22T06:47:17;9.27;;;6.17;;
12373;SDS011;6251;51.762;8.660;2023-11-22T06:57:18;12.33;;;8.03;;
12373;SDS011;6251;51.762;8.660;2023-11-22T07:07:19;10.80;;;7.70;;
12373;SDS011;6251;51.762;8.660;2023-11-22T07:17:19;11.30;;;6.80;;
12373;SDS011;6251;51.762;8.660;2023-11-22T07:27:21;14.23;;;9.23;;
12373;SDS011;6251;51.762;8.660;2023-11-22T07:37:22;13.60;;;8.17;;
12373;SDS011;6251;51.762;8.660;2023-11-22T07:47:23;15.00;;;8.67;;
12373;SDS011;6251;51.762;8.660;2023-11-22T07:57:24;12.57;;;8.37;;
12373;SDS011;6251;51.762;8.660;2023-11-22T08:07:25;12.33;;;8.23;;
12373;SDS011;6251;51.762;8.660;2023-11-22T08:17:27;13.63;;;8.80;;
12373;SDS011;6251;51.762;8.660;2023-11-22T08:27:28;15.80;;;8.50;;
12373;SDS011;6251;51.762;8.660;2023-11-22T08:37:29;18.40;;;9.23;;
12373;SDS011;6251;51.762;8.660;2023-11-22T08:47:34;14.37;;;8.17;;
12373;SDS011;6251;51.762;8.660;2023-11-22T08:57:35;10.63;;;7.67;;
12373;SDS011;6251;51.762;8.660;2023-11-22T09:07:37;11.73;;;7.97;;
12373;SDS011;6251;51.762;8.660;2023-11-22T09:17:39;11.93;;;8.03;;
12373;SDS011;6251;51.762;8.660;2023-11-22T09:27:46;11.70;;;7.53;;
12373;SDS011;6251;51.762;8.660;2023-11-22T09:37:48;9.53;;;6.77;;
12373;SDS011;6251;51.762;8.660;2023-11-22T09:47:51;10.10;;;6.97;;
12373;SDS011;6251;51.762;8.660;2023-11-22T09:57:52;9.63;;;6.60;;
12373;SDS011;6251;51.762;8.660;2023-11-22T10:07:54;10.80;;;7.20;;
12373;SDS011;6251;51.762;8.660;2023-11-22T10:17:56;8.90;;;6.80;;
12373;SDS011;6251;51.762;8.660;2023-11-22T10:27:58;10.53;;;6.27;;
12373;SDS011;6251;51.762;8.660;2023-11-22T10:38:01;9.20;;;6.67;;
12373;SDS011;6251;51.762;8.660;2023-11-22T10:48:04;6.47;;;5.40;;
12373;SDS011;6251;51.762;8.660;2023-11-22T10:58:08;9.93;;;6.47;;
12373;SDS011;6251;51.762;8.660;2023-11-22T11:08:11;7.20;;;5.62;;
12373;SDS011;6251;51.762;8.660;2023-11-22T11:18:14;5.80;;;4.73;;
12373;SDS011;6251;51.762;8.660;2023-11-22T11:28:16;7.93;;;5.57;;
12373;SDS011;6251;51.762;8.660;2023-11-22T11:38:19;6.95;;;5.00;;
12373;SDS011;6251;51.762;8.660;2023-11-22T11:48:20;6.67;;;5.23;;
12373;SDS011;6251;51.762;8.660;2023-11-22T11:58:21;6.30;;;5.17;;
12373;SDS011;6251;51.762;8.660;2023-11-22T12:08:23;5.20;;;4.70;;
12373;SDS011;6251;51.762;8.660;2023-11-22T12:18:23;5.80;;;5.07;;
12373;SDS011;6251;51.762;8.660;2023-11-22T12:28:28;6.30;;;5.70;;
12373;SDS011;6251;51.762;8.660;2023-11-22T12:38:29;6.83;;;5.90;;
12373;SDS011;6251;51.762;8.660;2023-11-22T12:48:30;7.10;;;5.77;;
12373;SDS011;6251;51.762;8.660;2023-11-22T12:58:32;5.33;;;4.73;;
12373;SDS011;6251;51.762;8.660;2023-11-22T13:08:33;7.20;;;5.47;;
12373;SDS011;6251;51.762;8.660;2023-11-22T13:18:34;6.03;;;5.32;;
12373;SDS011;6251;51.762;8.660;2023-11-22T13:28:37;6.10;;;5.40;;
12373;SDS011;6251;51.762;8.660;2023-11-22T13:38:37;6.80;;;5.20;;
12373;SDS011;6251;51.762;8.660;2023-11-22T13:48:39;6.53;;;5.65;;
12373;SDS011;6251;51.762;8.660;2023-11-22T13:58:41;7.47;;;6.40;;
12373;SDS011;6251;51.762;8.660;2023-11-22T14:08:42;8.53;;;6.97;;
12373;SDS011;6251;51.762;8.660;2023-11-22T14:18:43;4.63;;;4.23;;
12373;SDS011;6251;51.762;8.660;2023-11-22T14:28:45;7.97;;;6.70;;
12373;SDS011;6251;51.762;8.660;2023-11-22T14:38:45;5.90;;;5.03;;
12373;SDS011;6251;51.762;8.660;2023-11-22T14:48:53;4.77;;;4.20;;
12373;SDS011;6251;51.762;8.660;2023-11-22T14:58:54;4.83;;;4.17;;
12373;SDS011;6251;51.762;8.660;2023-11-22T15:08:54;5.10;;;4.60;;
12373;SDS011;6251;51.762;8.660;2023-11-22T15:18:58;6.30;;;4.67;;
12373;SDS011;6251;51.762;8.660;2023-11-22T15:29:02;6.93;;;4.67;;
12373;SDS011;6251;51.762;8.660;2023-11-22T15:39:02;5.37;;;4.80;;
12373;SDS011;6251;51.762;8.660;2023-11-22T15:49:03;6.80;;;5.20;;
12373;SDS011;6251;51.762;8.660;2023-11-22T15:59:04;4.97;;;4.47;;
12373;SDS011;6251;51.762;8.660;2023-11-22T16:09:04;6.87;;;5.75;;
12373;SDS011;6251;51.762;8.660;2023-11-22T16:19:06;8.27;;;6.50;;
12373;SDS011;6251;51.762;8.660;2023-11-22T16:29:07;7.33;;;6.53;;
12373;SDS011;6251;51.762;8.660;2023-11-22T16:39:08;9.40;;;7.87;;
12373;SDS011;6251;51.762;8.660;2023-11-22T16:49:10;10.57;;;7.73;;
12373;SDS011;6251;51.762;8.660;2023-11-22T16:59:13;8.77;;;7.23;;
12373;SDS011;6251;51.762;8.660;2023-11-22T17:09:14;8.30;;;6.90;;
12373;SDS011;6251;51.762;8.660;2023-11-22T17:19:17;9.50;;;7.80;;
12373;SDS011;6251;51.762;8.660;2023-11-22T17:29:18;10.00;;;8.10;;
12373;SDS011;6251;51.762;8.660;2023-11-22T17:39:21;9.80;;;7.80;;
12373;SDS011;6251;51.762;8.660;2023-11-22T17:49:21;9.90;;;7.43;;
12373;SDS011;6251;51.762;8.660;2023-11-22T17:59:22;9.55;;;7.95;;
12373;SDS011;6251;51.762;8.660;2023-11-22T18:09:22;8.27;;;7.00;;
12373;SDS011;6251;51.762;8.660;2023-11-22T18:19:25;10.73;;;7.50;;
12373;SDS011;6251;51.762;8.660;2023-11-22T18:29:28;7.37;;;6.37;;
12373;SDS011;6251;51.762;8.660;2023-11-22T18:39:29;9.37;;;7.47;;
12373;SDS011;6251;51.762;8.660;2023-11-22T18:49:30;10.13;;;7.47;;
12373;SDS011;6251;51.762;8.660;2023-11-22T18:59:31;9.17;;;7.50;;
12373;SDS011;6251;51.762;8.660;2023-11-22T19:09:31;8.63;;;6.73;;
12373;SDS011;6251;51.762;8.660;2023-11-22T19:19:33;8.93;;;7.30;;
12373;SDS011;6251;51.762;8.660;2023-11-22T19:29:38;10.40;;;7.33;;
12373;SDS011;6251;51.762;8.660;2023-11-22T19:39:39;8.73;;;6.50;;
12373;SDS011;6251;51.762;8.660;2023-11-22T19:49:41;7.47;;;6.18;;
12373;SDS011;6251;51.762;8.660;2023-11-22T19:59:42;6.57;;;5.00;;
12373;SDS011;6251;51.762;8.660;2023-11-22T20:09:43;4.93;;;4.35;;
12373;SDS011;6251;51.762;8.660;2023-11-22T20:19:44;5.33;;;4.70;;
12373;SDS011;6251;51.762;8.660;2023-11-22T20:29:44;5.50;;;5.00;;
12373;SDS011;6251;51.762;8.660;2023-11-22T20:39:45;8.03;;;5.77;;
12373;SDS011;6251;51.762;8.660;2023-11-22T20:49:46;7.00;;;5.70;;
12373;SDS011;6251;51.762;8.660;2023-11-22T20:59:46;8.40;;;5.57;;
12373;SDS011;6251;51.762;8.660;2023-11-22T21:09:49;7.22;;;6.07;;
12373;SDS011;6251;51.762;8.660;2023-11-22T21:19:53;7.22;;;5.30;;
12373;SDS011;6251;51.762;8.660;2023-11-22T21:29:53;7.97;;;5.97;;
12373;SDS011;6251;51.762;8.660;2023-11-22T21:39:54;8.95;;;6.75;;
12373;SDS011;6251;51.762;8.660;2023-11-22T21:49:55;10.15;;;7.05;;
12373;SDS011;6251;51.762;8.660;2023-11-22T21:59:56;11.20;;;7.43;;
